Flight Track Log - Related Links

Times and Time Zones

All times are in EDT time to prevent confusion due to time zone crossing. See the N978AC flight status page for this flight to view local times or setup timezone preferences in your user account.

Time Position Orientation Groundspeed Altitude Reporting Facility
EDT Latitude Longitude Course Direction KTS MPH feet Rate Location/Type
Thu 10:48:48 PM 30.6906 -84.8058 285° West 98 113 5,500  Level Jacksonville Center
Thu 10:49:55 PM 30.7069 -84.8328 305° West 96 110 6,100 472 Climbing Jacksonville Center
Thu 10:50:55 PM 30.7192 -84.8572 300° West 88 101 6,500 397 Climbing Jacksonville Center
Thu 10:51:56 PM 30.7292 -84.8839 294° West 82 94 6,900 385 Climbing Jacksonville Center
Thu 10:52:00 PM 30.6471 -84.6943 300° West  Level FlightAware Approximate
Thu 10:52:44 PM 30.7372 -84.9033 296° West 84 97 7,200  Level Jacksonville Center
Thu 10:53:00 PM 30.6544 -84.7197 285° West  Level FlightAware Approximate
Thu 10:53:45 PM 30.7472 -84.9256 298° West 85 98 7,500  Level Jacksonville Center
Thu 10:54:00 PM 30.6602 -84.7459 285° West  Level FlightAware Approximate
Thu 10:54:46 PM 30.7614 -84.9500 304° West 85 98 7,800  Level Jacksonville Center
Thu 10:55:34 PM 30.7653 -84.9692 283° West 80 92 8,100 165 Climbing Jacksonville Center
Thu 10:56:35 PM 30.7772 -84.9986 295° West 95 109 8,100  Level Jacksonville Center
Thu 10:57:35 PM 30.7894 -85.0256 298° West 101 116 8,100  Level Jacksonville Center
Thu 10:58:36 PM 30.7908 -85.0569 273° West 92 106 8,100  Level Jacksonville Center
Thu 10:59:37 PM 30.7925 -85.0836 274° West 89 102 8,100 50 Level Jacksonville Center
Thu 11:00:37 PM 30.7942 -85.1150 274° West 92 106 8,200  Climbing Jacksonville Center
Thu 11:01:38 PM 30.7958 -85.1442 274° West 93 107 8,100 -49 Descending Jacksonville Center
Thu 11:02:39 PM 30.7953 -85.1756 269° West 95 109 8,100  Level Jacksonville Center
Thu 11:03:45 PM 30.7883 -85.2117 257° West 95 109 8,100  Level Jacksonville Center
Thu 11:04:40 PM 30.7900 -85.2358 275° West 89 102 8,100  Level Jacksonville Center
Thu 11:05:40 PM 30.7956 -85.2650 283° West 92 106 8,100  Level Jacksonville Center
Thu 11:06:41 PM 30.7972 -85.2942 274° West 97 112 8,100  Level Jacksonville Center
Thu 11:07:41 PM 30.7986 -85.3256 273° West 93 107 8,100 -50 Level Jacksonville Center
Thu 11:08:42 PM 30.7981 -85.3544 269° West 90 104 8,000 -49 Descending Jacksonville Center
Thu 11:09:43 PM 30.7975 -85.3836 269° West 89 102 8,000 50 Level Jacksonville Center
Thu 11:10:43 PM 30.7992 -85.4125 274° West 88 101 8,100 99 Climbing Jacksonville Center
Thu 11:11:44 PM 30.8006 -85.4417 273° West 88 101 8,200  Climbing Jacksonville Center
Thu 11:12:44 PM 30.8019 -85.4708 273° West 89 102 8,100 -50 Descending Jacksonville Center
Thu 11:13:45 PM 30.8036 -85.4997 274° West 93 107 8,100 49 Level Jacksonville Center
Thu 11:14:46 PM 30.8050 -85.5311 273° West 91 105 8,200  Climbing Jacksonville Center
Thu 11:15:46 PM 30.8086 -85.5603 278° West 92 106 8,100 -52 Descending Jacksonville Center
Thu 11:16:41 PM 30.8100 -85.5869 273° West 92 106 8,100  Level Jacksonville Center
Thu 11:17:41 PM 30.8094 -85.6161 269° West 88 101 8,100  Level Jacksonville Center
Thu 11:18:48 PM 30.8067 -85.6475 264° West 87 100 8,100  Level Jacksonville Center
Thu 11:19:49 PM 30.8042 -85.6739 264° West 86 99 8,100  Level Jacksonville Center
Thu 11:20:49 PM 30.8056 -85.7053 273° West 89 102 8,100  Level Jacksonville Center
Thu 11:21:50 PM 30.8089 -85.7322 278° West 90 104 8,100  Level Jacksonville Center
Thu 11:52:28 PM 30.8192 -86.6322 270° West 94 108 8,100  Level Jacksonville Center
Thu 11:53:00 PM 30.8147 -86.5763 271° West  Level FlightAware Approximate
Thu 11:53:16 PM 30.8183 -86.6564 268° West 94 108 8,100  Level Jacksonville Center
Thu 11:54:00 PM 30.8153 -86.6034 271° West  Level FlightAware Approximate
Thu 11:54:17 PM 30.8236 -86.6881 281° West 95 109 8,100  Level Jacksonville Center
Thu 11:55:00 PM 30.8159 -86.6305 271° West  Level FlightAware Approximate
Thu 11:55:17 PM 30.8228 -86.7194 268° West 94 108 8,100  Level Jacksonville Center
Thu 11:56:00 PM 30.8165 -86.6576 271° West  Level FlightAware Approximate
Thu 11:56:18 PM 30.8197 -86.7483 263° West 93 107 8,100  Level Jacksonville Center
Thu 11:57:00 PM 30.8167 -86.6847 270° West  Level FlightAware Approximate
Thu 11:57:18 PM 30.8147 -86.7772 259° West 89 102 8,100  Level Jacksonville Center
Thu 11:58:19 PM 30.8161 -86.8061 273° West 92 106 8,100  Level Jacksonville Center
Thu 11:59:14 PM 30.8153 -86.8328 268° West 91 105 8,100  Level Jacksonville Center
Fri 12:00:14 AM 30.8122 -86.8617 263° West 91 105 8,100  Level Jacksonville Center
Fri 12:01:15 AM 30.8153 -86.8933 276° West 92 106 8,100  Level Jacksonville Center
Fri 12:02:21 AM 30.8144 -86.9247 268° West 90 104 8,100 -47 Level Jacksonville Center
Fri 12:03:22 AM 30.8156 -86.9536 273° West 87 100 8,000  Descending Jacksonville Center
Fri 12:04:23 AM 30.8167 -86.9828 273° West 91 105 8,100 50 Climbing Jacksonville Center
Fri 12:05:23 AM 30.8181 -87.0094 273° West 84 97 8,100 -50 Level Jacksonville Center
Fri 12:06:24 AM 30.8169 -87.0383 267° West 84 97 8,000  Descending Jacksonville Center
Fri 12:07:25 AM 30.8139 -87.0650 262° West 84 97 8,100 50 Climbing Jacksonville Center
Fri 12:08:25 AM 30.8047 -87.0911 248° West 83 96 8,100  Level Jacksonville Center
Fri 12:09:20 AM 30.7978 -87.1125 249° West 84 97 8,100  Level Jacksonville Center
Fri 12:10:20 AM 30.7925 -87.1436 259° West 88 101 8,100  Level Jacksonville Center
Fri 12:11:21 AM 30.7875 -87.1725 259° West 91 105 8,100 -50 Level Jacksonville Center
Fri 12:12:21 AM 30.7864 -87.2014 267° West 87 100 8,000 -50 Descending Jacksonville Center
Fri 12:13:22 AM 30.7814 -87.2303 259° West 86 99 8,000  Level Jacksonville Center
Fri 12:14:23 AM 30.7783 -87.2567 262° West 84 97 8,000 50 Level Jacksonville Center
Fri 12:15:23 AM 30.7753 -87.2831 262° West 85 98 8,100 50 Climbing Jacksonville Center
Fri 12:16:24 AM 30.7764 -87.3122 273° West 88 101 8,100  Level Jacksonville Center
Fri 12:17:24 AM 30.7775 -87.3411 273° West 88 101 8,100  Level Jacksonville Center
Fri 12:18:25 AM 30.7786 -87.3703 273° West 89 102 8,100 49 Level Jacksonville Center
Fri 12:19:26 AM 30.7736 -87.3967 258° West 87 100 8,200 52 Climbing Jacksonville Center
Fri 12:20:20 AM 30.7706 -87.4231 262° West 87 100 8,200  Level Jacksonville Center
Fri 12:22:09 AM 30.7667 -87.4656 264° West 85 98 8,200 -36 Level Houston Center
Fri 12:23:09 AM 30.7631 -87.4936 261° West 86 99 8,100 -50 Descending Houston Center
Fri 12:24:10 AM 30.7656 -87.5242 275° West 91 105 8,100  Level Houston Center
Fri 12:25:10 AM 30.7683 -87.5542 276° West 92 106 8,100 -50 Level Houston Center
Fri 12:26:10 AM 30.7642 -87.5811 260° West 89 102 8,000  Descending Houston Center
Fri 12:27:11 AM 30.7633 -87.6103 268° West 89 102 8,100 49 Climbing Houston Center
Fri 12:28:12 AM 30.7703 -87.6361 287° West 85 98 8,100  Level Houston Center
Fri 12:29:11 AM 30.7719 -87.6636 274° West 83 96 8,100 50 Level Houston Center
Fri 12:30:12 AM 30.7733 -87.6897 274° West 83 96 8,200  Climbing Houston Center
Fri 12:31:12 AM 30.7758 -87.7186 276° West 84 97 8,100 -50 Descending Houston Center
Fri 12:32:12 AM 30.7758 -87.7478 270° West 86 99 8,100  Level Houston Center
Fri 12:33:13 AM 30.7733 -87.7750 264° West 86 99 8,100  Level Houston Center
Fri 12:34:13 AM 30.7675 -87.8019 256° West 86 99 8,100  Level Houston Center
Fri 12:35:13 AM 30.7556 -87.8256 240° Southwest 85 98 8,100  Level Houston Center
Fri 12:36:14 AM 30.7450 -87.8494 243° Southwest 85 98 8,100  Level Houston Center
Fri 12:37:14 AM 30.7397 -87.8756 257° West 85 98 8,100  Level Houston Center
Fri 12:38:14 AM 30.7306 -87.9008 247° West 84 97 8,100  Level Houston Center
Fri 12:39:15 AM 30.7236 -87.9269 253° West 84 97 8,100  Level Houston Center
Fri 12:40:15 AM 30.7189 -87.9531 258° West 84 97 8,100  Level Houston Center
Fri 12:42:16 AM 30.7067 -88.0067 255° West 84 97 8,100  Level Houston Center
Fri 12:43:16 AM 30.6972 -88.0311 246° West 84 97 8,100 50 Level Houston Center
Fri 12:44:16 AM 30.6900 -88.0561 251° West 83 96 8,200  Climbing Houston Center
Fri 12:45:16 AM 30.6828 -88.0839 253° West 86 99 8,100 -50 Descending Houston Center
Fri 12:46:17 AM 30.6758 -88.1106 253° West 87 100 8,100  Level Houston Center
Fri 12:47:17 AM 30.6656 -88.1353 244° Southwest 87 100 8,100  Level Houston Center
Fri 12:48:17 AM 30.6575 -88.1608 250° West 87 100 8,100 50 Level Houston Center
Fri 12:49:18 AM 30.6475 -88.1867 246° West 86 99 8,200 50 Climbing Houston Center
Fri 12:50:18 AM 30.6389 -88.2131 249° West 87 100 8,200 -50 Level Houston Center
Fri 12:51:18 AM 30.6319 -88.2400 253° West 87 100 8,100 -50 Descending Houston Center
Fri 12:52:19 AM 30.6208 -88.2700 247° West 86 99 8,100 -50 Level Houston Center
Fri 12:53:19 AM 30.6119 -88.2950 248° West 86 99 8,000  Descending Houston Center
Fri 12:54:19 AM 30.6044 -88.3186 250° West 82 94 8,100 50 Climbing Houston Center
Fri 12:55:19 AM 30.5919 -88.3403 236° Southwest 81 93 8,100 50 Level Houston Center
Fri 12:56:20 AM 30.5847 -88.3656 252° West 81 93 8,200  Climbing Houston Center
Fri 12:57:20 AM 30.5756 -88.3922 248° West 82 94 8,100 -50 Descending Houston Center
Fri 12:58:20 AM 30.5675 -88.4186 250° West 83 96 8,100  Level Houston Center
Fri 12:59:21 AM 30.5600 -88.4444 251° West 84 97 8,100  Level Houston Center
Fri 01:00:21 AM 30.5536 -88.4711 254° West 84 97 8,100  Level Houston Center
Fri 01:01:21 AM 30.5469 -88.4975 254° West 84 97 8,100  Level Houston Center
Fri 01:02:21 AM 30.5400 -88.5236 253° West 84 97 8,100  Level Houston Center
Fri 01:03:22 AM 30.5275 -88.5469 238° Southwest 84 97 8,100  Level Houston Center
Fri 01:04:22 AM 30.5197 -88.5731 251° West 84 97 8,100  Level Houston Center
Fri 01:05:22 AM 30.5064 -88.5950 235° Southwest 84 97 8,100  Level Houston Center
Fri 01:06:22 AM 30.4947 -88.6200 242° Southwest 84 97 8,100  Level Houston Center
Fri 01:07:23 AM 30.4869 -88.6456 251° West 84 97 8,100  Level Houston Center
Fri 01:08:23 AM 30.4786 -88.6711 249° West 84 97 8,100  Level Houston Center
Fri 01:09:23 AM 30.4711 -88.6969 251° West 84 97 8,100  Level Houston Center
Fri 01:10:23 AM 30.4608 -88.7222 245° Southwest 85 98 8,100  Level Houston Center
Fri 01:11:23 AM 30.4533 -88.7481 251° West 85 98 8,100  Level Houston Center
Fri 01:12:24 AM 30.4467 -88.7761 255° West 85 98 8,100  Level Houston Center
Fri 01:13:24 AM 30.4394 -88.8014 252° West 85 98 8,100  Level Houston Center
Fri 01:14:24 AM 30.4350 -88.8292 259° West 85 98 8,100 50 Level Houston Center
Fri 01:15:24 AM 30.4333 -88.8567 266° West 86 99 8,200 50 Climbing Houston Center
Fri 01:16:25 AM 30.4272 -88.8844 256° West 86 99 8,200  Level Houston Center
Fri 01:17:25 AM 30.4192 -88.9106 250° West 86 99 8,200 -50 Level Houston Center
Fri 01:18:25 AM 30.4103 -88.9383 250° West 87 100 8,100 -50 Descending Houston Center
Fri 01:19:25 AM 30.4050 -88.9644 257° West 87 100 8,100  Level Houston Center
Fri 01:20:25 AM 30.3981 -88.9914 253° West 87 100 8,100  Level Houston Center
Fri 01:21:26 AM 30.3886 -89.0161 246° West 87 100 8,100  Level Houston Center
Fri 01:22:26 AM 30.3792 -89.0417 247° West 87 100 8,100  Level Houston Center
Fri 01:23:26 AM 30.3681 -89.0656 242° Southwest 87 100 8,100 50 Level Houston Center
Fri 01:24:26 AM 30.3519 -89.0869 229° Southwest 87 100 8,200 50 Climbing Houston Center
Fri 01:25:26 AM 30.3450 -89.1133 253° West 87 100 8,200  Level Houston Center
Fri 01:26:27 AM 30.3378 -89.1422 254° West 87 100 8,200  Level Houston Center
Fri 01:27:27 AM 30.3300 -89.1694 252° West 89 102 8,200 -50 Level Houston Center
Fri 01:28:27 AM 30.3192 -89.1964 245° Southwest 89 102 8,100 -50 Descending Houston Center
Fri 01:29:27 AM 30.3119 -89.2236 253° West 90 104 8,100  Level Houston Center
Fri 01:29:41 AM 30.3089 -89.2336 251° West 89 102 8,100  Level Houston Center
Fri 01:30:27 AM 30.3025 -89.2503 246° West 89 102 8,100  Level Houston Center
Fri 01:30:47 AM 30.2978 -89.2656 250° West 88 101 8,100  Level Houston Center
Fri 01:31:28 AM 30.2931 -89.2764 243° Southwest 89 102 8,100  Level Houston Center
Fri 01:31:48 AM 30.2861 -89.2903 240° Southwest 90 104 8,100 -200 Level Houston Center
Fri 01:32:28 AM 30.2836 -89.3019 256° West 89 102 7,900 -295 Descending Houston Center
Fri 01:32:49 AM 30.2789 -89.3194 253° West 95 109 7,800 -300 Descending Houston Center
Fri 01:33:28 AM 30.2736 -89.3325 245° Southwest 93 107 7,600 -500 Descending Houston Center
Fri 01:33:49 AM 30.2672 -89.3489 246° West 100 115 7,300 -500 Descending Houston Center
Fri 01:34:28 AM 30.2644 -89.3625 257° West 97 112 7,100 -393 Descending Houston Center
Fri 01:34:50 AM 30.2581 -89.3783 245° Southwest 99 114 6,900 -400 Descending Houston Center
Fri 01:35:28 AM 30.2553 -89.3931 258° West 97 112 6,700 -500 Descending Houston Center
Fri 01:35:50 AM 30.2508 -89.4100 253° West 101 116 6,400 -400 Descending Houston Center
Fri 01:36:28 AM 30.2467 -89.4233 250° West 97 112 6,300 -393 Descending Houston Center
Fri 01:36:51 AM 30.2392 -89.4369 237° Southwest 98 113 6,000 -492 Descending Houston Center
Fri 01:37:29 AM 30.2344 -89.4511 249° West 97 112 5,800 -393 Descending Houston Center
Fri 01:37:52 AM 30.2300 -89.4689 254° West 99 114 5,600 -400 Descending Houston Center
Fri 01:38:29 AM 30.2258 -89.4819 250° West 98 113 5,400 -500 Descending Houston Center
Fri 01:38:52 AM 30.2228 -89.5003 259° West 100 115 5,100 -500 Descending Houston Center
Fri 01:39:29 AM 30.2192 -89.5128 252° West 98 113 4,900 -393 Descending Houston Center
Fri 01:39:53 AM 30.2156 -89.5319 258° West 100 115 4,700 -300 Descending Houston Center
Fri 01:40:29 AM 30.2114 -89.5442 248° West 98 113 4,600 -400 Descending Houston Center
Fri 01:40:53 AM 30.2061 -89.5639 253° West 101 116 4,300 -500 Descending Houston Center
Fri 01:41:29 AM 30.2017 -89.5753 246° West 99 114 4,100 -393 Descending Houston Center
Fri 01:41:54 AM 30.1967 -89.5931 252° West 102 117 3,900 -400 Descending Houston Center
Fri 01:42:29 AM 30.1950 -89.6061 262° West 99 114 3,700 -393 Descending Houston Center
Fri 01:42:55 AM 30.1917 -89.6247 258° West 96 110 3,500 -492 Descending Houston Center
Fri 01:43:30 AM 30.1872 -89.6353 244° Southwest 99 114 3,200 -400 Descending Houston Center
Fri 01:43:55 AM 30.1822 -89.6539 253° West 95 109 3,100 -300 Descending Houston Center
Fri 01:44:30 AM 30.1806 -89.6653 260° West 99 114 2,900 -98 Descending Houston Center
Fri 01:44:56 AM 30.1769 -89.6806 255° West 90 104 3,000  Climbing Houston Center
Fri 01:45:30 AM 30.1747 -89.6914 257° West 92 106 2,900 100 Descending Houston Center
Fri 01:45:56 AM 30.1694 -89.7075 249° West 81 93 3,100 200 Climbing Houston Center
Fri 01:46:30 AM 30.1669 -89.7156 250° West 85 98 3,100 98 Level Houston Center
Fri 01:46:57 AM 30.1619 -89.7317 250° West 81 93 3,200 -100 Climbing Houston Center
Fri 01:47:30 AM 30.1597 -89.7417 256° West 83 96 3,000 -358 Descending Houston Center
Fri 01:48:04 AM 30.1547 -89.7633 255° West 98 113 2,800 -400 Descending Houston Center
Fri 01:48:30 AM 30.1539 -89.7728 264° West 90 104 2,600 -300 Descending Houston Center
Fri 01:49:04 AM 30.1494 -89.7972 258° West 107 123 2,500 -300 Descending Houston Center
Fri 01:49:30 AM 30.1475 -89.8064 256° West 100 115 2,300 -393 Descending Houston Center
Fri 01:50:05 AM 30.1400 -89.8289 249° West 103 119 2,100 -295 Descending Houston Center
Fri 01:50:31 AM 30.1378 -89.8369 252° West 100 115 2,000  Descending Houston Center
Fri 01:51:06 AM 30.1328 -89.8581 255° West 97 112 2,100  Climbing Houston Center
Fri 01:51:31 AM 30.1292 -89.8664 243° Southwest 100 115 2,000  Descending Houston Center
Fri 01:52:06 AM 30.1233 -89.8897 254° West 96 110 2,100  Climbing Houston Center
Fri 01:52:31 AM 30.1214 -89.8958 250° West 100 115 2,000  Descending Houston Center
Fri 01:53:07 AM 30.1158 -89.9189 254° West 94 108 2,100  Climbing Houston Center
Fri 01:53:31 AM 30.1150 -89.9253 261° West 99 114 2,000  Descending Houston Center
Fri 01:54:07 AM 30.1150 -89.9503 270° West 98 113 2,100  Climbing Houston Center
Fri 01:54:31 AM 30.1153 -89.9564 273° West 99 114 2,000  Descending Houston Center
Fri 01:55:08 AM 30.1200 -89.9814 282° West 101 116 2,100  Climbing Houston Center
Fri 01:55:31 AM 30.1203 -89.9886 273° West 99 114 2,000 -197 Descending Houston Center
Fri 01:56:09 AM 30.1169 -90.0103 260° West 96 110 1,900 -300 Descending Houston Center
Fri 01:56:31 AM 30.1158 -90.0169 259° West 97 112 1,700 -600 Descending Houston Center
Fri 01:57:09 AM 30.1008 -90.0303 218° Southwest 77 89 1,300 -590 Descending Houston Center
Fri 01:57:32 AM 30.0972 -90.0322 205° Southwest 89 102 1,100 -393 Descending Houston Center
Fri 01:58:10 AM 30.0842 -90.0308 175° South 58 67 900 -500 Descending Houston Center
Fri 01:58:32 AM 30.0808 -90.0306 176° South 71 82 600 -444 Descending Houston Center
Fri 01:59:04 AM 30.0694 -90.0314 184° South 57 66 500 -300 Descending Houston Center
Fri 01:59:32 AM 30.0642 -90.0308 175° South 63 72 300 -205 Descending Houston Center
Fri 02:00:32 AM 30.0472 -90.0314 182° South 63 72 200 -100 Descending Houston Center

Login

Don't have an account? Register now (free) for customized features, flight alerts, and more!